aviador You're here:

SARE Decoded Metar

RESISTENCIA in ARGENTINA
Report Time2018-04-27 02:00:00
UTC Time2018-04-27 03:02:49
Flight Rules vfr VFR
Wind070° at 03 kt
W.Decomp.*RWY 03: 1.9 kt HW 2.3 kt RCW
W.Rank070° ranks 5
Current wind is below 070° avg. (5.4)
Visibility9999 m
Phenomena:N/A
Clouds:N/A
Expected CloudBase > 800 ft AGL from Temp-Dew spread
CeilingNone
Temp23°C (ISA +8)
Dew Point21°C (89% RH)
QNH1012 hPa
Density Alt1,503 ft
Elevation171 ft
Report Wrong Elevation
Raw Report
SARE 270200Z 07003KT CAVOK 23/21 Q1012=

Extra information for SARE:More info

Metar Taf Metar & Taf Last 4 Metars F.Rules Stats Wind Profile Meteogram Temp Stats Airport Information Weather charts Add Link Nearby VenuesMetar ALERT Operation Metar Decoded Social comments